»·PEaware :: N4657 KLAX-KSNA

N4657 :: KLAX-KSNA

FLIGHT INFORMATION

Flight Status: Arrived
Operator: Privately registered:
United States
More flights under this callsign
Pilot: Elijah H. (14779)
Aircraft: PILATUS PC-12 EAGLE
(PC12)
More flights by this aircraft type
Origin: KLAX Los Angeles Intl
United States
Destination: KSNA John Wayne-Orange Co
United States
More flights between these airports :: More routes between these airports
Route: SLI8 SLI
File this flight plan on PilotEdge
Remarks:
Altitude:
(Current/Filed)
5,000ft
Speed:
(Current/Filed)
180kts
Departed: 22-May-20 05:06 PM
Arrived: 22-May-20 05:34 PM
Distance/Time
Traveled:
31nm/0:27
Distance/Time
To Go:
Arrived

Flight Plot

Page will automatically refresh every two minutes.


Map Options




Map Legend


Flown Route
Filed Route
Departure Airport
Arrival Airport
Navaid (VOR, NDB)
Fix

Horizontal Profiles

Position Reports

Time Latitude Longitude Heading Altitude Ground
Speed
22-May-20 16:38 33.941859 -118.379808 85 131ft 0kts
22-May-20 16:39 33.941859 -118.379808 85 131ft 0kts
22-May-20 16:40 33.941859 -118.379808 85 131ft 0kts
22-May-20 16:41 33.941859 -118.379808 85 131ft 0kts
22-May-20 16:42 33.941859 -118.379808 85 131ft 0kts
22-May-20 16:43 33.941859 -118.379808 85 131ft 0kts
22-May-20 16:44 33.941859 -118.379807 85 131ft 0kts
22-May-20 16:45 33.941859 -118.379807 85 131ft 0kts
22-May-20 16:46 33.941732 -118.380147 260 131ft 5kts
22-May-20 16:47 33.940897 -118.380565 181 131ft 0kts
22-May-20 16:48 33.939785 -118.381022 259 131ft 9kts
22-May-20 16:57 33.941814 -118.379719 91 131ft 0kts
22-May-20 16:58 33.941814 -118.379717 91 131ft 0kts
22-May-20 16:59 33.941814 -118.379716 91 131ft 0kts
22-May-20 17:00 33.941814 -118.379713 91 131ft 0kts
22-May-20 17:01 33.941813 -118.379710 91 131ft 0kts
22-May-20 17:02 33.941678 -118.380020 261 131ft 6kts
22-May-20 17:03 33.940829 -118.380561 178 131ft 0kts
22-May-20 17:04 33.939758 -118.380896 263 131ft 6kts
22-May-20 17:05 33.938975 -118.389320 263 263ft 90kts
22-May-20 17:06 33.935614 -118.428615 262 2349ft 139kts
22-May-20 17:07 33.916036 -118.479371 216 3314ft 204kts
22-May-20 17:08 33.865404 -118.497747 154 4947ft 219kts
22-May-20 17:09 33.804905 -118.468801 163 4988ft 237kts
22-May-20 17:10 33.742214 -118.445145 163 4985ft 235kts
22-May-20 17:11 33.689764 -118.402580 125 4990ft 238kts
22-May-20 17:12 33.669592 -118.331178 67 4997ft 241kts
22-May-20 17:13 33.700869 -118.258610 64 4986ft 246kts
22-May-20 17:14 33.730873 -118.184281 64 4987ft 247kts
22-May-20 17:15 33.761024 -118.109660 64 4988ft 248kts
22-May-20 17:16 33.790950 -118.035513 64 4992ft 249kts
22-May-20 17:17 33.821200 -117.960477 64 4988ft 250kts
22-May-20 17:18 33.851219 -117.885723 65 4984ft 245kts
22-May-20 17:19 33.880945 -117.811587 65 4978ft 250kts
22-May-20 17:20 33.911106 -117.736150 64 4979ft 252kts
22-May-20 17:21 33.964452 -117.685778 27 4984ft 253kts
22-May-20 17:23 34.025117 -117.678998 306 4287ft 219kts
22-May-20 17:24 34.002879 -117.726130 175 3585ft 214kts
22-May-20 17:25 33.944668 -117.705531 177 3487ft 214kts
22-May-20 17:26 33.891974 -117.731537 209 3472ft 204kts
22-May-20 17:27 33.845957 -117.770423 209 3478ft 202kts
22-May-20 17:28 33.792368 -117.796762 202 2787ft 205kts
22-May-20 17:29 33.750901 -117.820121 210 1584ft 116kts
22-May-20 17:30 33.729899 -117.834820 204 1031ft 79kts
22-May-20 17:31 33.710110 -117.846947 207 790ft 77kts
22-May-20 17:32 33.691575 -117.858741 207 320ft 75kts
22-May-20 17:33 33.674722 -117.869469 206 61ft 41kts
22-May-20 17:34 33.669145 -117.871553 122 61ft 0kts
22-May-20 17:35 33.668373 -117.871718 219 61ft 10kts
22-May-20 17:36 33.666248 -117.873550 206 61ft 6kts
22-May-20 17:37 33.665986 -117.873189 39 61ft 0kts

Navigation Log

Ident Type
Flight plan parsing failed, navigation log unavailable